Flight Track Log - Related Links

Times and Time Zones

All times are in EDT time to prevent confusion due to time zone crossing. See the JBU56 flight status page for this flight to view local times or setup timezone preferences in your user account.

Time Position Orientation Groundspeed Altitude Reporting Facility
EDT Latitude Longitude Course Direction KTS MPH feet Rate Location/Type
Mon 09:39:31 AM 40.5833 -73.7833 27° Northeast 216 249 2,300  Level New York TRACON
Mon 09:40:30 AM 40.6000 -73.7000 75° East 277 319 4,900 3,025 Climbing New York TRACON
Mon 09:41:00 AM 40.9636 -73.5932 21° North  Level FlightAware Approximate
Mon 09:41:30 AM 40.6500 -73.6167 52° Northeast 299 344 8,300  Level New York TRACON
Mon 09:42:00 AM 41.0093 -73.5704 21° North  Level FlightAware Approximate
Mon 09:42:30 AM 40.7167 -73.5333 43° Northeast 313 360 11,000  Level New York TRACON
Mon 09:43:00 AM 41.0532 -73.5423 27° Northeast  Level FlightAware Approximate
Mon 09:43:30 AM 40.7833 -73.4667 37° Northeast 347 399 13,000  Level New York TRACON
Mon 09:44:00 AM 41.1328 -73.4893 27° Northeast  Level FlightAware Approximate
Mon 09:45:06 AM 40.9392 -73.4431 North 360 414 16,600  Level Boston Center
Mon 09:46:07 AM 41.0331 -73.4197 11° North 372 428 18,700 2,100 Climbing Boston Center
Mon 09:47:06 AM 41.1564 -73.3939 North 382 440 20,800 1,160 Climbing Boston Center
Mon 09:48:06 AM 41.2692 -73.3681 10° North 395 455 21,000 100 Climbing Boston Center
Mon 09:49:06 AM 41.3839 -73.3419 10° North 408 470 21,000  Level Boston Center
Mon 09:50:06 AM 41.4964 -73.3353 North 408 470 21,000  Level Boston Center
Mon 09:51:06 AM 41.6069 -73.3286 North 402 463 21,000  Level Boston Center
Mon 09:52:18 AM 41.7197 -73.3217 North 402 463 21,000  Level Boston Center
Mon 09:53:18 AM 41.8531 -73.3153 North 402 463 21,000  Level Boston Center
Mon 09:54:18 AM 41.9678 -73.3086 North 407 468 21,000  Level Boston Center
Mon 09:55:18 AM 42.0825 -73.3017 North 407 468 21,000  Level Boston Center
Mon 09:56:18 AM 42.1972 -73.2947 North 407 468 21,000  Level Boston Center
Mon 09:57:18 AM 42.3139 -73.2881 North 407 468 21,000  Level Boston Center
Mon 09:58:18 AM 42.4308 -73.2728 North 407 468 21,000  Level Boston Center
Mon 09:59:18 AM 42.5517 -73.2686 North 407 468 21,000  Level Boston Center
Mon 10:00:18 AM 42.6558 -73.2672 North 402 463 21,000  Level Boston Center
Mon 10:01:18 AM 42.7789 -73.2603 North 402 463 21,000  Level Boston Center
Mon 10:02:18 AM 42.8936 -73.2533 North 402 463 21,000  Level Boston Center
Mon 10:03:18 AM 43.0061 -73.2492 North 402 463 21,000  Level Boston Center
Mon 10:04:19 AM 43.1167 -73.2392 North 402 463 21,000  Level Boston Center
Mon 10:05:18 AM 43.2272 -73.2322 North 402 463 21,000  Level Boston Center
Mon 10:06:18 AM 43.3397 -73.2253 North 402 463 21,000  Level Boston Center
Mon 10:07:18 AM 43.4419 -73.2178 North 402 463 21,000  Level Boston Center
Mon 10:08:18 AM 43.5564 -73.2108 North 402 463 21,000 -300 Level Boston Center
Mon 10:09:18 AM 43.6858 -73.2039 North 407 468 20,400 -1,100 Descending Boston Center
Mon 10:10:18 AM 43.7964 -73.1967 North 400 460 18,800 -1,600 Descending Boston Center
Mon 10:11:18 AM 43.9047 -73.1892 North 400 460 17,200 -1,900 Descending Boston Center
Mon 10:12:18 AM 44.0108 -73.1847 North 395 455 15,000 -2,300 Descending Boston Center
Mon 10:13:18 AM 44.1108 -73.1919 357° North 371 427 12,600 -2,100 Descending Boston Center
Mon 10:14:18 AM 44.2067 -73.2133 351° North 355 409 10,800 -1,450 Descending Boston Center
Mon 10:15:18 AM 44.2794 -73.2461 342° North 301 346 9,700 -1,388 Descending Boston Center
Mon 10:16:19 AM 44.3478 -73.2761 343° North 270 311 8,000 -2,050 Descending Boston Center
Mon 10:17:18 AM 44.4186 -73.3092 342° North 260 299 5,600 -2,269 Descending Boston Center
Mon 10:18:18 AM 44.4892 -73.3364 345° North 260 299 3,500 -1,400 Descending Boston Center
Mon 10:19:18 AM 44.5417 -73.2847 35° Northeast 228 262 2,800 -1,050 Descending Boston Center
Mon 10:20:18 AM 44.5169 -73.2233 119° Southeast 133 153 1,400 -1,400 Descending Boston Center

Login

Don't have an account? Register now (free) for customized features, flight alerts, and more!